sensor_id;sensor_type;location;lat;lon;timestamp;temperature;humidity
40960;DHT22;27842;52.272;8.052;2022-10-16T00:01:10;14.10;99.90
40960;DHT22;27842;52.272;8.052;2022-10-16T00:03:37;14.10;99.90
40960;DHT22;27842;52.272;8.052;2022-10-16T00:06:04;14.10;99.90
40960;DHT22;27842;52.272;8.052;2022-10-16T00:08:31;14.10;99.90
40960;DHT22;27842;52.272;8.052;2022-10-16T00:11:09;14.10;99.90
40960;DHT22;27842;52.272;8.052;2022-10-16T00:13:36;14.10;99.90
40960;DHT22;27842;52.272;8.052;2022-10-16T00:16:02;14.10;99.90
40960;DHT22;27842;52.272;8.052;2022-10-16T00:18:28;14.10;99.90
40960;DHT22;27842;52.272;8.052;2022-10-16T00:20:55;14.10;99.90
40960;DHT22;27842;52.272;8.052;2022-10-16T00:23:21;14.10;99.90
40960;DHT22;27842;52.272;8.052;2022-10-16T00:26:01;14.00;99.90
40960;DHT22;27842;52.272;8.052;2022-10-16T00:28:27;14.00;99.90
40960;DHT22;27842;52.272;8.052;2022-10-16T00:30:53;14.00;99.90
40960;DHT22;27842;52.272;8.052;2022-10-16T00:33:18;14.00;99.90
40960;DHT22;27842;52.272;8.052;2022-10-16T00:35:44;14.00;99.90
40960;DHT22;27842;52.272;8.052;2022-10-16T00:38:10;14.00;99.90
40960;DHT22;27842;52.272;8.052;2022-10-16T00:40:36;14.10;99.90
40960;DHT22;27842;52.272;8.052;2022-10-16T00:43:02;14.00;99.90
40960;DHT22;27842;52.272;8.052;2022-10-16T00:45:28;14.10;99.90
40960;DHT22;27842;52.272;8.052;2022-10-16T00:47:55;14.00;99.90
40960;DHT22;27842;52.272;8.052;2022-10-16T00:50:31;14.00;99.90
40960;DHT22;27842;52.272;8.052;2022-10-16T00:52:58;14.00;99.90
40960;DHT22;27842;52.272;8.052;2022-10-16T00:55:28;14.00;99.90
40960;DHT22;27842;52.272;8.052;2022-10-16T00:57:56;14.00;99.90
40960;DHT22;27842;52.272;8.052;2022-10-16T01:00:25;14.00;99.90
40960;DHT22;27842;52.272;8.052;2022-10-16T01:02:56;14.00;99.90
40960;DHT22;27842;52.272;8.052;2022-10-16T01:05:47;14.00;99.90
40960;DHT22;27842;52.272;8.052;2022-10-16T01:08:22;14.00;99.90
40960;DHT22;27842;52.272;8.052;2022-10-16T01:11:04;14.00;99.90
40960;DHT22;27842;52.272;8.052;2022-10-16T01:13:40;14.00;99.90
40960;DHT22;27842;52.272;8.052;2022-10-16T01:16:16;14.00;99.90
40960;DHT22;27842;52.272;8.052;2022-10-16T01:18:49;14.00;99.90
40960;DHT22;27842;52.272;8.052;2022-10-16T01:21:24;13.90;99.90
40960;DHT22;27842;52.272;8.052;2022-10-16T01:29:53;14.00;99.90
40960;DHT22;27842;52.272;8.052;2022-10-16T01:32:31;13.90;99.90
40960;DHT22;27842;52.272;8.052;2022-10-16T01:35:00;13.90;99.90
40960;DHT22;27842;52.272;8.052;2022-10-16T01:37:38;13.90;99.90
40960;DHT22;27842;52.272;8.052;2022-10-16T01:40:11;13.90;99.90
40960;DHT22;27842;52.272;8.052;2022-10-16T01:42:47;13.90;99.90
40960;DHT22;27842;52.272;8.052;2022-10-16T01:45:15;13.90;99.90
40960;DHT22;27842;52.272;8.052;2022-10-16T01:47:44;13.90;99.90
40960;DHT22;27842;52.272;8.052;2022-10-16T01:50:12;13.90;99.90
40960;DHT22;27842;52.272;8.052;2022-10-16T01:52:41;13.90;99.90
40960;DHT22;27842;52.272;8.052;2022-10-16T01:55:11;13.90;99.90
40960;DHT22;27842;52.272;8.052;2022-10-16T01:57:42;13.90;99.90
40960;DHT22;27842;52.272;8.052;2022-10-16T02:00:12;13.90;99.90
40960;DHT22;27842;52.272;8.052;2022-10-16T02:02:42;13.90;99.90
40960;DHT22;27842;52.272;8.052;2022-10-16T02:05:37;13.90;99.90
40960;DHT22;27842;52.272;8.052;2022-10-16T02:08:04;13.90;99.90
40960;DHT22;27842;52.272;8.052;2022-10-16T02:10:30;13.90;99.90
40960;DHT22;27842;52.272;8.052;2022-10-16T02:13:22;13.90;99.90
40960;DHT22;27842;52.272;8.052;2022-10-16T02:15:49;13.90;99.90
40960;DHT22;27842;52.272;8.052;2022-10-16T02:18:15;13.90;99.90
40960;DHT22;27842;52.272;8.052;2022-10-16T02:22:03;13.90;99.90
40960;DHT22;27842;52.272;8.052;2022-10-16T02:27:12;13.90;99.90
40960;DHT22;27842;52.272;8.052;2022-10-16T02:29:42;13.90;99.90
40960;DHT22;27842;52.272;8.052;2022-10-16T02:32:15;13.90;99.90
40960;DHT22;27842;52.272;8.052;2022-10-16T02:34:42;13.90;99.90
40960;DHT22;27842;52.272;8.052;2022-10-16T02:37:10;13.90;99.90
40960;DHT22;27842;52.272;8.052;2022-10-16T02:39:37;13.80;99.90
40960;DHT22;27842;52.272;8.052;2022-10-16T02:42:03;13.80;99.90
40960;DHT22;27842;52.272;8.052;2022-10-16T02:44:29;13.90;99.90
40960;DHT22;27842;52.272;8.052;2022-10-16T02:46:55;13.90;99.90
40960;DHT22;27842;52.272;8.052;2022-10-16T02:49:20;13.80;99.90
40960;DHT22;27842;52.272;8.052;2022-10-16T02:51:46;13.80;99.90
40960;DHT22;27842;52.272;8.052;2022-10-16T02:54:12;13.80;99.90
40960;DHT22;27842;52.272;8.052;2022-10-16T02:56:38;13.80;99.90
40960;DHT22;27842;52.272;8.052;2022-10-16T02:59:04;13.80;99.90
40960;DHT22;27842;52.272;8.052;2022-10-16T03:01:29;13.80;99.90
40960;DHT22;27842;52.272;8.052;2022-10-16T03:03:55;13.80;99.90
40960;DHT22;27842;52.272;8.052;2022-10-16T03:06:21;13.80;99.90
40960;DHT22;27842;52.272;8.052;2022-10-16T03:08:46;13.80;99.90
40960;DHT22;27842;52.272;8.052;2022-10-16T03:11:12;13.80;99.90
40960;DHT22;27842;52.272;8.052;2022-10-16T03:13:38;13.90;99.90
40960;DHT22;27842;52.272;8.052;2022-10-16T03:16:03;13.80;99.90
40960;DHT22;27842;52.272;8.052;2022-10-16T03:18:29;13.80;99.90
40960;DHT22;27842;52.272;8.052;2022-10-16T03:20:54;13.80;99.90
40960;DHT22;27842;52.272;8.052;2022-10-16T03:23:20;13.80;99.90
40960;DHT22;27842;52.272;8.052;2022-10-16T03:25:45;13.80;99.90
40960;DHT22;27842;52.272;8.052;2022-10-16T03:28:11;13.80;99.90
40960;DHT22;27842;52.272;8.052;2022-10-16T03:30:37;13.80;99.90
40960;DHT22;27842;52.272;8.052;2022-10-16T03:33:05;13.80;99.90
40960;DHT22;27842;52.272;8.052;2022-10-16T03:35:31;13.80;99.90
40960;DHT22;27842;52.272;8.052;2022-10-16T03:37:57;13.80;99.90
40960;DHT22;27842;52.272;8.052;2022-10-16T03:40:22;13.80;99.90
40960;DHT22;27842;52.272;8.052;2022-10-16T03:42:48;13.80;99.90
40960;DHT22;27842;52.272;8.052;2022-10-16T03:45:14;13.80;99.90
40960;DHT22;27842;52.272;8.052;2022-10-16T03:47:39;13.80;99.90
40960;DHT22;27842;52.272;8.052;2022-10-16T03:50:05;13.80;99.90
40960;DHT22;27842;52.272;8.052;2022-10-16T03:52:31;13.80;99.90
40960;DHT22;27842;52.272;8.052;2022-10-16T03:54:57;13.80;99.90
40960;DHT22;27842;52.272;8.052;2022-10-16T03:57:23;13.80;99.90
40960;DHT22;27842;52.272;8.052;2022-10-16T03:59:49;13.80;99.90
40960;DHT22;27842;52.272;8.052;2022-10-16T04:02:14;13.80;99.90
40960;DHT22;27842;52.272;8.052;2022-10-16T04:04:40;13.80;99.90
40960;DHT22;27842;52.272;8.052;2022-10-16T04:07:06;13.80;99.90
40960;DHT22;27842;52.272;8.052;2022-10-16T04:09:31;13.80;99.90
40960;DHT22;27842;52.272;8.052;2022-10-16T04:11:57;13.70;99.90
40960;DHT22;27842;52.272;8.052;2022-10-16T04:14:22;13.80;99.90
40960;DHT22;27842;52.272;8.052;2022-10-16T04:16:48;13.80;99.90
40960;DHT22;27842;52.272;8.052;2022-10-16T04:19:13;13.80;99.90
40960;DHT22;27842;52.272;8.052;2022-10-16T04:21:39;13.80;99.90
40960;DHT22;27842;52.272;8.052;2022-10-16T04:24:05;13.80;99.90
40960;DHT22;27842;52.272;8.052;2022-10-16T04:26:31;13.80;99.90
40960;DHT22;27842;52.272;8.052;2022-10-16T04:28:56;13.80;99.90
40960;DHT22;27842;52.272;8.052;2022-10-16T04:31:22;13.70;99.90
40960;DHT22;27842;52.272;8.052;2022-10-16T04:33:48;13.70;99.90
40960;DHT22;27842;52.272;8.052;2022-10-16T04:36:13;13.70;99.90
40960;DHT22;27842;52.272;8.052;2022-10-16T04:38:39;13.70;99.90
40960;DHT22;27842;52.272;8.052;2022-10-16T04:41:06;13.80;99.90
40960;DHT22;27842;52.272;8.052;2022-10-16T04:43:33;13.80;99.90
40960;DHT22;27842;52.272;8.052;2022-10-16T04:45:59;13.80;99.90
40960;DHT22;27842;52.272;8.052;2022-10-16T04:48:25;13.80;99.90
40960;DHT22;27842;52.272;8.052;2022-10-16T04:50:50;13.80;99.90
40960;DHT22;27842;52.272;8.052;2022-10-16T04:53:16;13.70;99.90
40960;DHT22;27842;52.272;8.052;2022-10-16T04:55:42;13.70;99.90
40960;DHT22;27842;52.272;8.052;2022-10-16T04:58:08;13.80;99.90
40960;DHT22;27842;52.272;8.052;2022-10-16T05:00:34;13.70;99.90
40960;DHT22;27842;52.272;8.052;2022-10-16T05:03:00;13.80;99.90
40960;DHT22;27842;52.272;8.052;2022-10-16T05:05:26;13.80;99.90
40960;DHT22;27842;52.272;8.052;2022-10-16T05:07:52;13.70;99.90
40960;DHT22;27842;52.272;8.052;2022-10-16T05:10:18;13.80;99.90
40960;DHT22;27842;52.272;8.052;2022-10-16T05:12:44;13.80;99.90
40960;DHT22;27842;52.272;8.052;2022-10-16T05:15:10;13.80;99.90
40960;DHT22;27842;52.272;8.052;2022-10-16T05:17:36;13.70;99.90
40960;DHT22;27842;52.272;8.052;2022-10-16T05:20:02;13.70;99.90
40960;DHT22;27842;52.272;8.052;2022-10-16T05:22:28;13.70;99.90
40960;DHT22;27842;52.272;8.052;2022-10-16T05:24:54;13.70;99.90
40960;DHT22;27842;52.272;8.052;2022-10-16T05:27:20;13.80;99.90
40960;DHT22;27842;52.272;8.052;2022-10-16T05:29:46;13.70;99.90
40960;DHT22;27842;52.272;8.052;2022-10-16T05:32:13;13.70;99.90
40960;DHT22;27842;52.272;8.052;2022-10-16T05:34:39;13.70;99.90
40960;DHT22;27842;52.272;8.052;2022-10-16T05:37:05;13.80;99.90
40960;DHT22;27842;52.272;8.052;2022-10-16T05:39:31;13.70;99.90
40960;DHT22;27842;52.272;8.052;2022-10-16T05:41:56;13.70;99.90
40960;DHT22;27842;52.272;8.052;2022-10-16T05:44:22;13.70;99.90
40960;DHT22;27842;52.272;8.052;2022-10-16T05:46:48;13.70;99.90
40960;DHT22;27842;52.272;8.052;2022-10-16T05:49:13;13.80;99.90
40960;DHT22;27842;52.272;8.052;2022-10-16T05:51:39;13.70;99.90
40960;DHT22;27842;52.272;8.052;2022-10-16T05:54:05;13.70;99.90
40960;DHT22;27842;52.272;8.052;2022-10-16T05:56:30;13.80;99.90
40960;DHT22;27842;52.272;8.052;2022-10-16T05:58:56;13.70;99.90
40960;DHT22;27842;52.272;8.052;2022-10-16T06:01:22;13.70;99.90
40960;DHT22;27842;52.272;8.052;2022-10-16T06:03:52;13.70;99.90
40960;DHT22;27842;52.272;8.052;2022-10-16T06:06:21;13.70;99.90
40960;DHT22;27842;52.272;8.052;2022-10-16T06:08:48;13.70;99.90
40960;DHT22;27842;52.272;8.052;2022-10-16T06:11:25;13.70;99.90
40960;DHT22;27842;52.272;8.052;2022-10-16T06:13:52;13.70;99.90
40960;DHT22;27842;52.272;8.052;2022-10-16T06:16:19;13.80;99.90
40960;DHT22;27842;52.272;8.052;2022-10-16T06:18:45;13.70;99.90
40960;DHT22;27842;52.272;8.052;2022-10-16T06:21:14;13.70;99.90
40960;DHT22;27842;52.272;8.052;2022-10-16T06:23:41;13.70;99.90
40960;DHT22;27842;52.272;8.052;2022-10-16T06:26:08;13.70;99.90
40960;DHT22;27842;52.272;8.052;2022-10-16T06:28:34;13.70;99.90
40960;DHT22;27842;52.272;8.052;2022-10-16T06:31:00;13.70;99.90
40960;DHT22;27842;52.272;8.052;2022-10-16T06:33:26;13.70;99.90
40960;DHT22;27842;52.272;8.052;2022-10-16T06:35:52;13.70;99.90
40960;DHT22;27842;52.272;8.052;2022-10-16T06:38:17;13.70;99.90
40960;DHT22;27842;52.272;8.052;2022-10-16T06:40:43;13.70;99.90
40960;DHT22;27842;52.272;8.052;2022-10-16T06:43:09;13.70;99.90
40960;DHT22;27842;52.272;8.052;2022-10-16T06:45:34;13.70;99.90
40960;DHT22;27842;52.272;8.052;2022-10-16T06:48:00;13.70;99.90
40960;DHT22;27842;52.272;8.052;2022-10-16T06:50:25;13.70;99.90
40960;DHT22;27842;52.272;8.052;2022-10-16T06:52:51;13.70;99.90
40960;DHT22;27842;52.272;8.052;2022-10-16T06:55:17;13.70;99.90
40960;DHT22;27842;52.272;8.052;2022-10-16T06:57:43;13.70;99.90
40960;DHT22;27842;52.272;8.052;2022-10-16T07:00:09;13.70;99.90
40960;DHT22;27842;52.272;8.052;2022-10-16T07:02:35;13.70;99.90
40960;DHT22;27842;52.272;8.052;2022-10-16T07:05:00;13.70;99.90
40960;DHT22;27842;52.272;8.052;2022-10-16T07:07:26;13.70;99.90
40960;DHT22;27842;52.272;8.052;2022-10-16T07:09:52;13.70;99.90
40960;DHT22;27842;52.272;8.052;2022-10-16T07:12:18;13.70;99.90
40960;DHT22;27842;52.272;8.052;2022-10-16T07:14:43;13.70;99.90
40960;DHT22;27842;52.272;8.052;2022-10-16T07:17:09;13.70;99.90
40960;DHT22;27842;52.272;8.052;2022-10-16T07:19:34;13.70;99.90
40960;DHT22;27842;52.272;8.052;2022-10-16T07:22:00;13.70;99.90
40960;DHT22;27842;52.272;8.052;2022-10-16T07:24:26;13.70;99.90
40960;DHT22;27842;52.272;8.052;2022-10-16T07:26:52;13.70;99.90
40960;DHT22;27842;52.272;8.052;2022-10-16T07:29:19;13.70;99.90
40960;DHT22;27842;52.272;8.052;2022-10-16T07:31:46;13.70;99.90
40960;DHT22;27842;52.272;8.052;2022-10-16T07:34:14;13.70;99.90
40960;DHT22;27842;52.272;8.052;2022-10-16T07:36:40;13.70;99.90
40960;DHT22;27842;52.272;8.052;2022-10-16T07:39:05;13.70;99.90
40960;DHT22;27842;52.272;8.052;2022-10-16T07:41:31;13.70;99.90
40960;DHT22;27842;52.272;8.052;2022-10-16T07:43:58;13.70;99.90
40960;DHT22;27842;52.272;8.052;2022-10-16T07:46:26;13.70;99.90
40960;DHT22;27842;52.272;8.052;2022-10-16T07:48:52;13.80;99.90
40960;DHT22;27842;52.272;8.052;2022-10-16T07:51:19;13.70;99.90
40960;DHT22;27842;52.272;8.052;2022-10-16T07:53:45;13.80;99.90
40960;DHT22;27842;52.272;8.052;2022-10-16T07:56:12;13.80;99.90
40960;DHT22;27842;52.272;8.052;2022-10-16T07:58:38;13.80;99.90
40960;DHT22;27842;52.272;8.052;2022-10-16T08:01:09;13.80;99.90
40960;DHT22;27842;52.272;8.052;2022-10-16T08:03:34;13.80;99.90
40960;DHT22;27842;52.272;8.052;2022-10-16T08:06:01;13.90;99.90
40960;DHT22;27842;52.272;8.052;2022-10-16T08:08:27;14.00;99.90
40960;DHT22;27842;52.272;8.052;2022-10-16T08:10:53;14.00;99.90
40960;DHT22;27842;52.272;8.052;2022-10-16T08:13:19;14.00;99.90
40960;DHT22;27842;52.272;8.052;2022-10-16T08:15:45;14.00;99.90
40960;DHT22;27842;52.272;8.052;2022-10-16T08:18:12;14.10;99.90
40960;DHT22;27842;52.272;8.052;2022-10-16T08:20:39;14.10;99.90
40960;DHT22;27842;52.272;8.052;2022-10-16T08:23:05;14.10;99.90
40960;DHT22;27842;52.272;8.052;2022-10-16T08:25:31;14.20;99.90
40960;DHT22;27842;52.272;8.052;2022-10-16T08:27:56;14.20;99.90
40960;DHT22;27842;52.272;8.052;2022-10-16T08:30:23;14.20;99.90
40960;DHT22;27842;52.272;8.052;2022-10-16T08:32:50;14.30;99.90
40960;DHT22;27842;52.272;8.052;2022-10-16T08:35:16;14.30;99.90
40960;DHT22;27842;52.272;8.052;2022-10-16T08:37:42;14.30;99.90
40960;DHT22;27842;52.272;8.052;2022-10-16T08:40:25;14.40;99.90
40960;DHT22;27842;52.272;8.052;2022-10-16T08:48:53;14.50;99.90
40960;DHT22;27842;52.272;8.052;2022-10-16T08:53:56;14.60;99.90
40960;DHT22;27842;52.272;8.052;2022-10-16T08:56:23;14.70;99.90
40960;DHT22;27842;52.272;8.052;2022-10-16T08:58:49;14.70;99.90
40960;DHT22;27842;52.272;8.052;2022-10-16T09:01:17;14.80;99.90
40960;DHT22;27842;52.272;8.052;2022-10-16T09:17:37;15.20;99.90
40960;DHT22;27842;52.272;8.052;2022-10-16T09:20:16;15.30;99.90
40960;DHT22;27842;52.272;8.052;2022-10-16T09:22:43;15.30;99.90
40960;DHT22;27842;52.272;8.052;2022-10-16T09:25:18;15.50;99.90
40960;DHT22;27842;52.272;8.052;2022-10-16T09:27:48;15.50;99.90
40960;DHT22;27842;52.272;8.052;2022-10-16T09:30:18;15.60;99.90
40960;DHT22;27842;52.272;8.052;2022-10-16T09:32:47;15.60;99.90
40960;DHT22;27842;52.272;8.052;2022-10-16T09:35:18;15.70;99.90
40960;DHT22;27842;52.272;8.052;2022-10-16T09:37:47;15.70;99.90
40960;DHT22;27842;52.272;8.052;2022-10-16T09:40:25;15.80;99.90
40960;DHT22;27842;52.272;8.052;2022-10-16T09:42:58;15.80;99.90
40960;DHT22;27842;52.272;8.052;2022-10-16T09:45:27;15.80;99.90
40960;DHT22;27842;52.272;8.052;2022-10-16T09:47:53;15.90;99.90
40960;DHT22;27842;52.272;8.052;2022-10-16T09:50:28;15.90;99.90
40960;DHT22;27842;52.272;8.052;2022-10-16T09:53:12;15.90;99.90
40960;DHT22;27842;52.272;8.052;2022-10-16T09:55:51;15.90;99.90
40960;DHT22;27842;52.272;8.052;2022-10-16T09:58:17;15.90;99.90
40960;DHT22;27842;52.272;8.052;2022-10-16T10:00:53;16.00;99.90
40960;DHT22;27842;52.272;8.052;2022-10-16T10:05:57;16.00;99.90
40960;DHT22;27842;52.272;8.052;2022-10-16T10:08:22;16.00;99.90
40960;DHT22;27842;52.272;8.052;2022-10-16T10:10:48;16.00;99.90
40960;DHT22;27842;52.272;8.052;2022-10-16T10:13:22;16.00;99.90
40960;DHT22;27842;52.272;8.052;2022-10-16T10:15:50;16.00;99.90
40960;DHT22;27842;52.272;8.052;2022-10-16T10:18:18;16.00;99.90
40960;DHT22;27842;52.272;8.052;2022-10-16T10:20:45;16.00;99.90
40960;DHT22;27842;52.272;8.052;2022-10-16T10:23:21;16.00;99.90
40960;DHT22;27842;52.272;8.052;2022-10-16T10:26:06;16.00;99.90
40960;DHT22;27842;52.272;8.052;2022-10-16T10:28:39;16.00;99.90
40960;DHT22;27842;52.272;8.052;2022-10-16T10:31:27;16.00;99.90
40960;DHT22;27842;52.272;8.052;2022-10-16T10:37:06;16.00;99.90
40960;DHT22;27842;52.272;8.052;2022-10-16T10:39:47;16.00;99.90
40960;DHT22;27842;52.272;8.052;2022-10-16T10:42:25;16.10;99.90
40960;DHT22;27842;52.272;8.052;2022-10-16T10:45:28;16.10;99.90
40960;DHT22;27842;52.272;8.052;2022-10-16T10:48:30;16.10;99.90
40960;DHT22;27842;52.272;8.052;2022-10-16T10:51:31;16.10;99.90
40960;DHT22;27842;52.272;8.052;2022-10-16T10:54:13;16.10;99.90
40960;DHT22;27842;52.272;8.052;2022-10-16T10:56:47;16.10;99.90
40960;DHT22;27842;52.272;8.052;2022-10-16T11:02:24;16.20;99.90
40960;DHT22;27842;52.272;8.052;2022-10-16T11:08:16;16.20;99.90
40960;DHT22;27842;52.272;8.052;2022-10-16T11:10:58;16.20;99.90
40960;DHT22;27842;52.272;8.052;2022-10-16T11:13:30;16.20;99.90
40960;DHT22;27842;52.272;8.052;2022-10-16T11:16:00;16.30;99.90
40960;DHT22;27842;52.272;8.052;2022-10-16T11:18:40;16.30;99.90
40960;DHT22;27842;52.272;8.052;2022-10-16T11:21:11;16.30;99.90
40960;DHT22;27842;52.272;8.052;2022-10-16T11:23:44;16.30;99.90
40960;DHT22;27842;52.272;8.052;2022-10-16T11:26:21;16.30;99.90
40960;DHT22;27842;52.272;8.052;2022-10-16T11:28:53;16.30;99.90
40960;DHT22;27842;52.272;8.052;2022-10-16T11:31:38;16.40;99.90
40960;DHT22;27842;52.272;8.052;2022-10-16T11:34:55;16.40;99.90
40960;DHT22;27842;52.272;8.052;2022-10-16T11:37:44;16.40;99.90
40960;DHT22;27842;52.272;8.052;2022-10-16T11:43:22;16.40;99.90
40960;DHT22;27842;52.272;8.052;2022-10-16T11:45:53;16.50;99.90
40960;DHT22;27842;52.272;8.052;2022-10-16T11:48:32;16.50;99.90
40960;DHT22;27842;52.272;8.052;2022-10-16T11:51:17;16.60;99.90
40960;DHT22;27842;52.272;8.052;2022-10-16T11:56:22;16.60;99.90
40960;DHT22;27842;52.272;8.052;2022-10-16T11:59:14;16.60;99.90
40960;DHT22;27842;52.272;8.052;2022-10-16T12:04:34;16.60;99.90
40960;DHT22;27842;52.272;8.052;2022-10-16T12:07:14;16.70;99.90
40960;DHT22;27842;52.272;8.052;2022-10-16T12:09:41;16.60;99.90
40960;DHT22;27842;52.272;8.052;2022-10-16T12:12:28;16.60;99.90
40960;DHT22;27842;52.272;8.052;2022-10-16T12:15:19;16.70;99.90
40960;DHT22;27842;52.272;8.052;2022-10-16T12:17:46;16.70;99.90
40960;DHT22;27842;52.272;8.052;2022-10-16T12:22:41;16.80;99.90
40960;DHT22;27842;52.272;8.052;2022-10-16T12:25:37;16.80;99.90
40960;DHT22;27842;52.272;8.052;2022-10-16T12:30:41;16.80;99.90
40960;DHT22;27842;52.272;8.052;2022-10-16T12:35:46;16.90;99.90
40960;DHT22;27842;52.272;8.052;2022-10-16T12:41:06;17.00;99.90
40960;DHT22;27842;52.272;8.052;2022-10-16T12:43:41;17.10;99.90
40960;DHT22;27842;52.272;8.052;2022-10-16T12:48:34;17.10;99.90
40960;DHT22;27842;52.272;8.052;2022-10-16T12:51:21;17.20;99.90
40960;DHT22;27842;52.272;8.052;2022-10-16T12:54:43;17.20;99.90
40960;DHT22;27842;52.272;8.052;2022-10-16T13:00:00;17.20;99.90
40960;DHT22;27842;52.272;8.052;2022-10-16T13:08:18;17.20;99.90
40960;DHT22;27842;52.272;8.052;2022-10-16T13:16:15;17.20;99.90
40960;DHT22;27842;52.272;8.052;2022-10-16T13:18:56;17.10;99.90
40960;DHT22;27842;52.272;8.052;2022-10-16T13:24:48;17.10;99.90
40960;DHT22;27842;52.272;8.052;2022-10-16T13:27:29;17.10;99.90
40960;DHT22;27842;52.272;8.052;2022-10-16T13:30:29;17.10;99.90
40960;DHT22;27842;52.272;8.052;2022-10-16T13:33:06;17.10;99.90
40960;DHT22;27842;52.272;8.052;2022-10-16T13:35:35;17.10;99.90
40960;DHT22;27842;52.272;8.052;2022-10-16T13:38:11;17.10;99.90
40960;DHT22;27842;52.272;8.052;2022-10-16T13:41:04;17.10;99.90
40960;DHT22;27842;52.272;8.052;2022-10-16T13:43:41;17.10;99.90
40960;DHT22;27842;52.272;8.052;2022-10-16T13:46:13;17.10;99.90
40960;DHT22;27842;52.272;8.052;2022-10-16T13:48:39;17.10;99.90
40960;DHT22;27842;52.272;8.052;2022-10-16T13:51:14;17.10;99.90
40960;DHT22;27842;52.272;8.052;2022-10-16T13:53:40;17.00;99.90
40960;DHT22;27842;52.272;8.052;2022-10-16T13:56:19;17.00;99.90
40960;DHT22;27842;52.272;8.052;2022-10-16T13:58:45;17.00;99.90
40960;DHT22;27842;52.272;8.052;2022-10-16T14:01:23;17.00;99.90
40960;DHT22;27842;52.272;8.052;2022-10-16T14:03:50;17.00;99.90
40960;DHT22;27842;52.272;8.052;2022-10-16T14:06:19;17.10;99.90
40960;DHT22;27842;52.272;8.052;2022-10-16T14:08:53;17.10;99.90
40960;DHT22;27842;52.272;8.052;2022-10-16T14:11:22;17.10;99.90
40960;DHT22;27842;52.272;8.052;2022-10-16T14:13:49;17.00;99.90
40960;DHT22;27842;52.272;8.052;2022-10-16T14:16:19;17.00;99.90
40960;DHT22;27842;52.272;8.052;2022-10-16T14:19:19;17.00;99.90
40960;DHT22;27842;52.272;8.052;2022-10-16T14:21:45;17.00;99.90
40960;DHT22;27842;52.272;8.052;2022-10-16T14:24:12;16.90;99.90
40960;DHT22;27842;52.272;8.052;2022-10-16T14:26:43;16.90;99.90
40960;DHT22;27842;52.272;8.052;2022-10-16T14:29:14;16.90;99.90
40960;DHT22;27842;52.272;8.052;2022-10-16T14:31:41;16.90;99.90
40960;DHT22;27842;52.272;8.052;2022-10-16T14:34:34;16.90;99.90
40960;DHT22;27842;52.272;8.052;2022-10-16T14:37:20;16.90;99.90
40960;DHT22;27842;52.272;8.052;2022-10-16T14:39:52;16.90;99.90
40960;DHT22;27842;52.272;8.052;2022-10-16T14:42:20;16.90;99.90
40960;DHT22;27842;52.272;8.052;2022-10-16T14:44:46;16.90;99.90
40960;DHT22;27842;52.272;8.052;2022-10-16T14:47:21;16.90;99.90
40960;DHT22;27842;52.272;8.052;2022-10-16T14:49:51;16.90;99.90
40960;DHT22;27842;52.272;8.052;2022-10-16T14:52:17;16.90;99.90
40960;DHT22;27842;52.272;8.052;2022-10-16T14:54:42;16.90;99.90
40960;DHT22;27842;52.272;8.052;2022-10-16T14:57:24;16.90;99.90
40960;DHT22;27842;52.272;8.052;2022-10-16T14:59:52;16.90;99.90
40960;DHT22;27842;52.272;8.052;2022-10-16T15:04:48;16.80;99.90
40960;DHT22;27842;52.272;8.052;2022-10-16T15:07:13;16.80;99.90
40960;DHT22;27842;52.272;8.052;2022-10-16T15:09:39;16.80;99.90
40960;DHT22;27842;52.272;8.052;2022-10-16T15:12:05;16.80;99.90
40960;DHT22;27842;52.272;8.052;2022-10-16T15:14:30;16.80;99.90
40960;DHT22;27842;52.272;8.052;2022-10-16T15:16:56;16.80;99.90
40960;DHT22;27842;52.272;8.052;2022-10-16T15:19:22;16.80;99.90
40960;DHT22;27842;52.272;8.052;2022-10-16T15:21:48;16.80;99.90
40960;DHT22;27842;52.272;8.052;2022-10-16T15:24:15;16.80;99.90
40960;DHT22;27842;52.272;8.052;2022-10-16T15:26:40;16.70;99.90
40960;DHT22;27842;52.272;8.052;2022-10-16T15:29:06;16.70;99.90
40960;DHT22;27842;52.272;8.052;2022-10-16T15:31:33;16.70;99.90
40960;DHT22;27842;52.272;8.052;2022-10-16T15:33:58;16.70;99.90
40960;DHT22;27842;52.272;8.052;2022-10-16T15:36:31;16.60;99.90
40960;DHT22;27842;52.272;8.052;2022-10-16T15:38:59;16.60;99.90
40960;DHT22;27842;52.272;8.052;2022-10-16T15:41:25;16.60;99.90
40960;DHT22;27842;52.272;8.052;2022-10-16T15:43:51;16.60;99.90
40960;DHT22;27842;52.272;8.052;2022-10-16T15:46:19;16.60;99.90
40960;DHT22;27842;52.272;8.052;2022-10-16T15:48:46;16.50;99.90
40960;DHT22;27842;52.272;8.052;2022-10-16T15:51:12;16.50;99.90
40960;DHT22;27842;52.272;8.052;2022-10-16T15:53:37;16.50;99.90
40960;DHT22;27842;52.272;8.052;2022-10-16T15:56:05;16.50;99.90
40960;DHT22;27842;52.272;8.052;2022-10-16T15:58:31;16.50;99.90
40960;DHT22;27842;52.272;8.052;2022-10-16T16:00:57;16.50;99.90
40960;DHT22;27842;52.272;8.052;2022-10-16T16:03:23;16.40;99.90
40960;DHT22;27842;52.272;8.052;2022-10-16T16:05:48;16.40;99.90
40960;DHT22;27842;52.272;8.052;2022-10-16T16:08:14;16.40;99.90
40960;DHT22;27842;52.272;8.052;2022-10-16T16:10:40;16.40;99.90
40960;DHT22;27842;52.272;8.052;2022-10-16T16:13:05;16.40;99.90
40960;DHT22;27842;52.272;8.052;2022-10-16T16:15:31;16.40;99.90
40960;DHT22;27842;52.272;8.052;2022-10-16T16:17:57;16.40;99.90
40960;DHT22;27842;52.272;8.052;2022-10-16T16:20:22;16.30;99.90
40960;DHT22;27842;52.272;8.052;2022-10-16T16:22:48;16.30;99.90
40960;DHT22;27842;52.272;8.052;2022-10-16T16:25:14;16.30;99.90
40960;DHT22;27842;52.272;8.052;2022-10-16T16:27:39;16.30;99.90
40960;DHT22;27842;52.272;8.052;2022-10-16T16:30:06;16.30;99.90
40960;DHT22;27842;52.272;8.052;2022-10-16T16:32:33;16.30;99.90
40960;DHT22;27842;52.272;8.052;2022-10-16T16:35:00;16.30;99.90
40960;DHT22;27842;52.272;8.052;2022-10-16T16:37:25;16.30;99.90
40960;DHT22;27842;52.272;8.052;2022-10-16T16:39:51;16.30;99.90
40960;DHT22;27842;52.272;8.052;2022-10-16T16:42:16;16.20;99.90
40960;DHT22;27842;52.272;8.052;2022-10-16T16:44:42;16.20;99.90
40960;DHT22;27842;52.272;8.052;2022-10-16T16:47:09;16.20;99.90
40960;DHT22;27842;52.272;8.052;2022-10-16T16:49:35;16.20;99.90
40960;DHT22;27842;52.272;8.052;2022-10-16T16:52:00;16.20;99.90
40960;DHT22;27842;52.272;8.052;2022-10-16T16:54:26;16.20;99.90
40960;DHT22;27842;52.272;8.052;2022-10-16T16:56:52;16.20;99.90
40960;DHT22;27842;52.272;8.052;2022-10-16T16:59:19;16.10;99.90
40960;DHT22;27842;52.272;8.052;2022-10-16T17:01:46;16.10;99.90
40960;DHT22;27842;52.272;8.052;2022-10-16T17:04:12;16.10;99.90
40960;DHT22;27842;52.272;8.052;2022-10-16T17:06:38;16.10;99.90
40960;DHT22;27842;52.272;8.052;2022-10-16T17:09:06;16.10;99.90
40960;DHT22;27842;52.272;8.052;2022-10-16T17:11:32;16.10;99.90